TimeMST,TemperatureF,Dew PointF,Humidity,Sea Level PressureIn,VisibilityMPH,Wind Direction,Wind SpeedMPH,Gust SpeedMPH,PrecipitationIn,Events,Conditions,WindDirDegrees,DateUTC
12:13 AM,28.4,17.6,64,30.29,10.0,SSW,10.4,-,N/A,,Clear,210,2013-03-02 07:13:00
12:33 AM,26.6,17.6,69,30.30,10.0,SSW,8.1,-,N/A,,Clear,210,2013-03-02 07:33:00
12:54 AM,28.4,17.6,64,30.29,10.0,SW,10.4,-,N/A,,Clear,230,2013-03-02 07:54:00
1:14 AM,28.4,17.6,64,30.29,10.0,SW,9.2,-,N/A,,Clear,230,2013-03-02 08:14:00
1:34 AM,28.4,15.8,59,30.29,10.0,WSW,9.2,-,N/A,,Clear,240,2013-03-02 08:34:00
1:54 AM,28.4,17.6,64,30.29,10.0,WSW,8.1,-,N/A,,Clear,250,2013-03-02 08:54:00
2:13 AM,28.4,15.8,59,30.29,10.0,WSW,8.1,-,N/A,,Clear,240,2013-03-02 09:13:00
2:33 AM,28.4,15.8,59,30.29,10.0,WSW,8.1,-,N/A,,Clear,250,2013-03-02 09:33:00
2:53 AM,28.4,15.8,59,30.28,10.0,WSW,8.1,-,N/A,,Clear,250,2013-03-02 09:53:00
3:14 AM,28.4,14.0,55,30.28,10.0,West,9.2,-,N/A,,Clear,260,2013-03-02 10:14:00
3:34 AM,24.8,14.0,64,30.28,10.0,West,6.9,-,N/A,,Clear,270,2013-03-02 10:34:00
3:54 AM,28.4,15.8,59,30.28,10.0,WSW,6.9,-,N/A,,Clear,250,2013-03-02 10:54:00
4:14 AM,28.4,15.8,59,30.28,10.0,WSW,8.1,-,N/A,,Clear,240,2013-03-02 11:14:00
4:34 AM,28.4,15.8,59,30.29,10.0,WSW,8.1,-,N/A,,Clear,240,2013-03-02 11:34:00
4:54 AM,28.4,15.8,59,30.29,10.0,WSW,6.9,-,N/A,,Clear,240,2013-03-02 11:54:00
5:14 AM,30.2,15.8,55,30.29,10.0,WSW,8.1,-,N/A,,Clear,240,2013-03-02 12:14:00
5:34 AM,30.2,15.8,55,30.29,10.0,WSW,6.9,-,N/A,,Clear,240,2013-03-02 12:34:00
5:54 AM,30.2,15.8,55,30.29,10.0,WSW,8.1,-,N/A,,Clear,240,2013-03-02 12:54:00
6:14 AM,30.2,14.0,51,30.29,10.0,WSW,10.4,-,N/A,,Clear,240,2013-03-02 13:14:00
6:34 AM,30.2,14.0,51,30.29,10.0,SW,10.4,-,N/A,,Clear,230,2013-03-02 13:34:00
6:54 AM,30.2,14.0,51,30.30,10.0,SW,9.2,-,N/A,,Clear,230,2013-03-02 13:54:00
7:11 AM,32.0,14.0,48,30.30,10.0,WSW,9.2,-,N/A,,Clear,240,2013-03-02 14:11:00
7:28 AM,32.0,15.8,51,30.31,10.0,WSW,9.2,-,N/A,,Clear,240,2013-03-02 14:28:00
7:54 AM,33.8,15.8,48,30.30,10.0,WSW,8.1,-,N/A,,Clear,240,2013-03-02 14:54:00
8:13 AM,35.6,15.8,44,30.30,10.0,SW,9.2,-,N/A,,Clear,230,2013-03-02 15:13:00
8:34 AM,35.6,17.6,48,30.31,10.0,SSW,6.9,-,N/A,,Clear,210,2013-03-02 15:34:00
8:54 AM,35.6,19.4,52,30.31,10.0,SSW,6.9,-,N/A,,Clear,210,2013-03-02 15:54:00
9:14 AM,37.4,21.2,52,30.31,10.0,SW,5.8,-,N/A,,Clear,220,2013-03-02 16:14:00
9:34 AM,41.0,21.2,45,30.30,10.0,SSW,4.6,-,N/A,,Clear,210,2013-03-02 16:34:00
9:54 AM,42.8,23.0,46,30.30,10.0,South,3.5,-,N/A,,Clear,190,2013-03-02 16:54:00
10:11 AM,44.6,23.0,43,30.30,10.0,SSW,3.5,-,N/A,,Clear,200,2013-03-02 17:11:00
10:29 AM,44.6,21.2,39,30.30,10.0,SSW,3.5,-,N/A,,Clear,210,2013-03-02 17:29:00
10:52 AM,46.4,21.2,37,30.29,10.0,Calm,Calm,-,N/A,,Clear,0,2013-03-02 17:52:00
11:14 AM,46.4,21.2,37,30.29,10.0,Calm,Calm,-,N/A,,Clear,0,2013-03-02 18:14:00
11:32 AM,46.4,21.2,37,30.29,10.0,Calm,Calm,-,N/A,,Clear,0,2013-03-02 18:32:00
11:54 AM,44.6,23.0,43,30.28,10.0,Calm,Calm,-,N/A,,Clear,0,2013-03-02 18:54:00
12:14 PM,46.4,21.2,37,30.27,10.0,Calm,Calm,-,N/A,,Clear,0,2013-03-02 19:14:00
12:33 PM,46.4,19.4,34,30.26,10.0,Calm,Calm,-,N/A,,Clear,0,2013-03-02 19:33:00
12:54 PM,46.4,19.4,34,30.25,10.0,Calm,Calm,-,N/A,,Clear,0,2013-03-02 19:54:00
1:14 PM,46.4,19.4,34,30.24,10.0,Calm,Calm,-,N/A,,Clear,0,2013-03-02 20:14:00
1:34 PM,50.0,19.4,30,30.24,10.0,Calm,Calm,-,N/A,,Clear,0,2013-03-02 20:34:00
1:54 PM,50.0,19.4,30,30.23,10.0,Calm,Calm,-,N/A,,Clear,0,2013-03-02 20:54:00
2:14 PM,48.2,19.4,32,30.23,10.0,Calm,Calm,-,N/A,,Clear,0,2013-03-02 21:14:00
2:34 PM,48.2,21.2,34,30.23,10.0,South,3.5,-,N/A,,Clear,170,2013-03-02 21:34:00
2:54 PM,48.2,21.2,34,30.22,10.0,South,4.6,-,N/A,,Clear,180,2013-03-02 21:54:00
3:14 PM,46.4,23.0,40,30.21,10.0,South,5.8,-,N/A,,Clear,190,2013-03-02 22:14:00
3:34 PM,46.4,26.6,46,30.21,10.0,SSW,4.6,-,N/A,,Clear,200,2013-03-02 22:34:00
3:54 PM,46.4,23.0,40,30.21,10.0,SSW,4.6,-,N/A,,Clear,210,2013-03-02 22:54:00
4:14 PM,46.4,26.6,46,30.21,10.0,SSW,5.8,-,N/A,,Clear,200,2013-03-02 23:14:00
4:34 PM,44.6,23.0,43,30.21,10.0,SSW,4.6,-,N/A,,Clear,200,2013-03-02 23:34:00
4:54 PM,44.6,24.8,46,30.20,10.0,SSW,4.6,-,N/A,,Clear,200,2013-03-02 23:54:00
5:12 PM,41.0,23.0,49,30.20,10.0,SSW,4.6,-,N/A,,Clear,200,2013-03-03 00:12:00
5:30 PM,41.0,23.0,49,30.20,10.0,SSW,4.6,-,N/A,,Clear,210,2013-03-03 00:30:00
5:50 PM,41.0,21.2,45,30.20,10.0,SW,5.8,-,N/A,,Clear,220,2013-03-03 00:50:00
6:14 PM,41.0,21.2,45,30.20,10.0,SW,6.9,-,N/A,,Clear,230,2013-03-03 01:14:00
6:34 PM,41.0,21.2,45,30.20,10.0,SW,6.9,-,N/A,,Clear,230,2013-03-03 01:34:00
6:54 PM,39.2,23.0,52,30.20,10.0,WSW,6.9,-,N/A,,Clear,240,2013-03-03 01:54:00
7:10 PM,37.4,23.0,56,30.20,10.0,WSW,5.8,-,N/A,,Clear,240,2013-03-03 02:10:00
7:34 PM,35.6,23.0,60,30.19,10.0,SW,6.9,-,N/A,,Clear,220,2013-03-03 02:34:00
7:54 PM,35.6,23.0,60,30.19,10.0,SSW,5.8,-,N/A,,Clear,210,2013-03-03 02:54:00
8:14 PM,35.6,23.0,60,30.19,10.0,SSW,6.9,-,N/A,,Clear,200,2013-03-03 03:14:00
8:31 PM,33.8,23.0,65,30.18,10.0,SSW,8.1,-,N/A,,Clear,200,2013-03-03 03:31:00
8:54 PM,35.6,23.0,60,30.19,10.0,SSW,6.9,-,N/A,,Clear,210,2013-03-03 03:54:00
9:14 PM,33.8,23.0,65,30.18,10.0,SSW,6.9,-,N/A,,Clear,200,2013-03-03 04:14:00
9:34 PM,33.8,23.0,65,30.17,10.0,SSW,6.9,-,N/A,,Clear,200,2013-03-03 04:34:00
9:49 PM,35.6,23.0,60,30.16,10.0,SSW,6.9,-,N/A,,Clear,200,2013-03-03 04:49:00
10:14 PM,33.8,24.8,70,30.16,10.0,SSW,8.1,-,N/A,,Clear,200,2013-03-03 05:14:00
10:34 PM,33.8,24.8,70,30.15,10.0,South,11.5,-,N/A,,Clear,190,2013-03-03 05:34:00
10:52 PM,35.6,23.0,60,30.13,10.0,SSW,12.7,-,N/A,,Clear,200,2013-03-03 05:52:00
11:14 PM,37.4,23.0,56,30.12,10.0,South,10.4,-,N/A,,Clear,190,2013-03-03 06:14:00
11:34 PM,35.6,21.2,56,30.11,10.0,SSW,12.7,-,N/A,,Clear,200,2013-03-03 06:34:00
11:52 PM,35.6,23.0,60,30.10,10.0,South,15.0,-,N/A,,Clear,190,2013-03-03 06:52:00